createdAt,value
2023-01-10T00:00:51.486Z,991.41
2023-01-10T00:01:51.460Z,991.49
2023-01-10T00:02:51.498Z,991.50
2023-01-10T00:03:51.432Z,991.52
2023-01-10T00:04:51.522Z,991.51
2023-01-10T00:05:51.406Z,991.58
2023-01-10T00:06:51.397Z,991.59
2023-01-10T00:07:51.380Z,991.60
2023-01-10T00:08:51.414Z,991.70
2023-01-10T00:09:51.359Z,991.68
2023-01-10T00:10:51.389Z,991.65
2023-01-10T00:11:51.350Z,991.71
2023-01-10T00:12:51.342Z,991.70
2023-01-10T00:13:51.323Z,991.71
2023-01-10T00:14:51.343Z,991.77
2023-01-10T00:15:51.308Z,991.79
2023-01-10T00:16:51.290Z,991.87
2023-01-10T00:17:51.287Z,991.86
2023-01-10T00:18:51.284Z,991.82
2023-01-10T00:19:51.287Z,991.86
2023-01-10T00:20:51.239Z,991.93
2023-01-10T00:21:51.232Z,991.98
2023-01-10T00:22:51.221Z,991.99
2023-01-10T00:23:51.212Z,992.01
2023-01-10T00:24:51.258Z,991.97
2023-01-10T00:25:51.191Z,992.03
2023-01-10T00:26:51.358Z,992.11
2023-01-10T00:27:51.177Z,992.12
2023-01-10T00:28:51.168Z,992.19
2023-01-10T00:29:51.154Z,992.17
2023-01-10T00:30:51.208Z,992.24
2023-01-10T00:31:51.136Z,992.23
2023-01-10T00:32:51.124Z,992.28
2023-01-10T00:33:51.094Z,992.26
2023-01-10T00:34:51.099Z,992.27
2023-01-10T00:35:51.092Z,992.30
2023-01-10T00:36:51.091Z,992.37
2023-01-10T00:37:51.069Z,992.39
2023-01-10T00:38:51.055Z,992.41
2023-01-10T00:39:51.057Z,992.39
2023-01-10T00:40:51.074Z,992.40
2023-01-10T00:41:51.021Z,992.41
2023-01-10T00:42:51.011Z,992.37
2023-01-10T00:43:50.991Z,992.39
2023-01-10T00:44:50.996Z,992.40
2023-01-10T00:45:51.030Z,992.46
2023-01-10T00:46:50.976Z,992.44
2023-01-10T00:47:50.959Z,992.48
2023-01-10T00:48:50.980Z,992.46
2023-01-10T00:49:50.917Z,992.46
2023-01-10T00:50:50.951Z,992.50
2023-01-10T00:51:50.922Z,992.54
2023-01-10T00:52:50.905Z,992.56
2023-01-10T00:53:50.887Z,992.59
2023-01-10T00:54:50.892Z,992.62
2023-01-10T00:55:50.868Z,992.57
2023-01-10T00:56:50.840Z,992.66
2023-01-10T00:57:50.833Z,992.64
2023-01-10T00:58:50.832Z,992.75
2023-01-10T00:59:50.825Z,992.74
2023-01-10T01:00:50.907Z,992.72
2023-01-10T01:01:50.915Z,992.74
2023-01-10T01:02:50.825Z,992.73
2023-01-10T01:03:50.792Z,992.77
2023-01-10T01:04:50.768Z,992.78
2023-01-10T01:05:50.752Z,992.82
2023-01-10T01:06:50.853Z,992.85
2023-01-10T01:07:50.734Z,992.86
2023-01-10T01:08:50.726Z,992.85
2023-01-10T01:09:50.707Z,992.82
2023-01-10T01:10:50.706Z,992.90
2023-01-10T01:11:50.700Z,992.88
2023-01-10T01:12:50.667Z,992.94
2023-01-10T01:13:50.660Z,992.93
2023-01-10T01:14:50.646Z,992.87
2023-01-10T01:15:50.689Z,992.90
2023-01-10T01:16:50.635Z,992.90
2023-01-10T01:17:50.635Z,993.03
2023-01-10T01:18:50.597Z,992.97
2023-01-10T01:19:50.596Z,993.06
2023-01-10T01:20:50.576Z,993.08
2023-01-10T01:21:50.572Z,993.11
2023-01-10T01:22:50.566Z,993.11
2023-01-10T01:23:50.557Z,993.17
2023-01-10T01:24:50.547Z,993.18
2023-01-10T01:25:50.532Z,993.19
2023-01-10T01:26:50.529Z,993.20
2023-01-10T01:27:50.505Z,993.23
2023-01-10T01:28:50.489Z,993.25
2023-01-10T01:29:50.488Z,993.25
2023-01-10T01:30:50.544Z,993.34
2023-01-10T01:31:50.457Z,993.28
2023-01-10T01:32:50.449Z,993.36
2023-01-10T01:33:50.455Z,993.34
2023-01-10T01:34:50.448Z,993.39
2023-01-10T01:35:50.446Z,993.46
2023-01-10T01:36:50.425Z,993.43
2023-01-10T01:37:50.396Z,993.41
2023-01-10T01:38:50.387Z,993.48
2023-01-10T01:39:50.423Z,993.47
2023-01-10T01:40:50.363Z,993.44
2023-01-10T01:41:50.340Z,993.48
2023-01-10T01:42:50.333Z,993.46
2023-01-10T01:43:50.324Z,993.48
2023-01-10T01:44:50.334Z,993.46
2023-01-10T01:45:50.317Z,993.45
2023-01-10T01:46:50.301Z,993.47
2023-01-10T01:47:50.278Z,993.53
2023-01-10T01:48:50.272Z,993.52
2023-01-10T01:49:50.266Z,993.55
2023-01-10T01:50:50.317Z,993.53
2023-01-10T01:51:50.255Z,993.56
2023-01-10T01:52:50.239Z,993.59
2023-01-10T01:53:50.218Z,993.59
2023-01-10T01:54:50.210Z,993.60
2023-01-10T01:55:50.191Z,993.62
2023-01-10T01:56:50.191Z,993.58
2023-01-10T01:57:50.201Z,993.71
2023-01-10T01:58:50.167Z,993.71
2023-01-10T01:59:50.155Z,993.76
2023-01-10T02:00:50.240Z,993.77
2023-01-10T02:01:50.213Z,993.78
2023-01-10T02:03:01.744Z,993.81
2023-01-10T02:03:50.304Z,993.76
2023-01-10T02:04:50.096Z,993.74
2023-01-10T02:05:50.085Z,993.76
2023-01-10T02:06:50.082Z,993.80
2023-01-10T02:07:50.058Z,993.82
2023-01-10T02:08:50.047Z,993.85
2023-01-10T02:09:50.051Z,993.83
2023-01-10T02:10:50.034Z,993.84
2023-01-10T02:11:50.035Z,993.83
2023-01-10T02:12:50.008Z,993.85
2023-01-10T02:13:50.078Z,993.87
2023-01-10T02:14:49.990Z,993.90
2023-01-10T02:15:50.035Z,993.86
2023-01-10T02:16:49.988Z,993.88
2023-01-10T02:17:49.964Z,993.89
2023-01-10T02:18:49.945Z,993.87
2023-01-10T02:19:49.939Z,993.81
2023-01-10T02:20:49.916Z,993.85
2023-01-10T02:21:49.925Z,993.85
2023-01-10T02:22:49.911Z,993.87
2023-01-10T02:23:49.885Z,993.91
2023-01-10T02:24:49.883Z,993.92
2023-01-10T02:25:49.876Z,993.92
2023-01-10T02:26:49.864Z,993.93
2023-01-10T02:27:49.840Z,993.94
2023-01-10T02:28:49.844Z,993.95
2023-01-10T02:29:49.835Z,993.95
2023-01-10T02:30:49.806Z,994.00
2023-01-10T02:31:49.813Z,994.01
2023-01-10T02:33:00.651Z,994.01
2023-01-10T02:33:49.776Z,994.03
2023-01-10T02:34:49.775Z,994.05
2023-01-10T02:35:49.751Z,994.01
2023-01-10T02:36:49.747Z,994.11
2023-01-10T02:37:49.738Z,994.07
2023-01-10T02:38:49.708Z,994.09
2023-01-10T02:39:49.732Z,994.04
2023-01-10T02:40:49.703Z,994.07
2023-01-10T02:41:49.689Z,994.05
2023-01-10T02:42:49.691Z,994.05
2023-01-10T02:43:49.681Z,994.12
2023-01-10T02:44:49.651Z,994.12
2023-01-10T02:45:49.640Z,994.12
2023-01-10T02:46:49.694Z,994.13
2023-01-10T02:47:49.648Z,994.17
2023-01-10T02:48:49.629Z,994.16
2023-01-10T02:49:49.628Z,994.16
2023-01-10T02:50:49.596Z,994.10
2023-01-10T02:51:49.581Z,994.09
2023-01-10T02:52:49.565Z,994.10
2023-01-10T02:53:49.556Z,994.08
2023-01-10T02:54:49.595Z,994.10
2023-01-10T02:55:49.555Z,994.13
2023-01-10T02:56:49.513Z,994.11
2023-01-10T02:57:49.513Z,994.09
2023-01-10T02:58:49.498Z,994.12
2023-01-10T02:59:49.491Z,994.14
2023-01-10T03:00:49.484Z,994.16
2023-01-10T03:01:49.579Z,994.14
2023-01-10T03:02:49.446Z,994.14
2023-01-10T03:03:49.458Z,994.17
2023-01-10T03:04:49.552Z,994.21
2023-01-10T03:05:49.431Z,994.25
2023-01-10T03:06:49.401Z,994.23
2023-01-10T03:07:49.396Z,994.17
2023-01-10T03:08:49.380Z,994.20
2023-01-10T03:09:49.383Z,994.17
2023-01-10T03:10:49.394Z,994.20
2023-01-10T03:11:49.359Z,994.17
2023-01-10T03:12:49.348Z,994.16
2023-01-10T03:13:49.331Z,994.26
2023-01-10T03:14:49.338Z,994.21
2023-01-10T03:15:49.395Z,994.23
2023-01-10T03:16:49.300Z,994.29
2023-01-10T03:17:49.288Z,994.29
2023-01-10T03:18:49.287Z,994.29
2023-01-10T03:19:49.286Z,994.32
2023-01-10T03:20:49.409Z,994.34
2023-01-10T03:21:49.256Z,994.37
2023-01-10T03:22:49.241Z,994.38
2023-01-10T03:23:49.222Z,994.44
2023-01-10T03:24:49.231Z,994.49
2023-01-10T03:25:49.222Z,994.51
2023-01-10T03:26:49.187Z,994.53
2023-01-10T03:27:49.177Z,994.53
2023-01-10T03:28:49.179Z,994.52
2023-01-10T03:29:49.173Z,994.54
2023-01-10T03:30:49.168Z,994.60
2023-01-10T03:31:49.140Z,994.57
2023-01-10T03:32:49.133Z,994.60
2023-01-10T03:33:49.106Z,994.59
2023-01-10T03:34:49.096Z,994.63
2023-01-10T03:35:49.093Z,994.68
2023-01-10T03:36:49.076Z,994.74
2023-01-10T03:37:49.086Z,994.75
2023-01-10T03:38:49.064Z,994.74
2023-01-10T03:39:49.063Z,994.75
2023-01-10T03:40:49.032Z,994.72
2023-01-10T03:41:49.016Z,994.76
2023-01-10T03:42:49.018Z,994.73
2023-01-10T03:43:49.020Z,994.75
2023-01-10T03:44:49.012Z,994.73
2023-01-10T03:45:48.984Z,994.71
2023-01-10T03:46:49.045Z,994.72
2023-01-10T03:47:48.965Z,994.71
2023-01-10T03:48:48.966Z,994.74
2023-01-10T03:49:48.974Z,994.71
2023-01-10T03:50:48.921Z,994.72
2023-01-10T03:51:48.938Z,994.76
2023-01-10T03:52:48.914Z,994.78
2023-01-10T03:53:48.912Z,994.81
2023-01-10T03:54:48.905Z,994.83
2023-01-10T03:55:48.878Z,994.83
2023-01-10T03:56:48.863Z,994.79
2023-01-10T03:57:48.923Z,994.84
2023-01-10T03:58:48.840Z,994.86
2023-01-10T03:59:48.836Z,994.88
2023-01-10T04:00:48.849Z,994.88
2023-01-10T04:01:48.945Z,994.92
2023-01-10T04:02:48.803Z,994.94
2023-01-10T04:03:48.833Z,994.92
2023-01-10T04:04:48.776Z,994.99
2023-01-10T04:05:48.768Z,995.03
2023-01-10T04:06:48.752Z,995.05
2023-01-10T04:07:48.735Z,995.04
2023-01-10T04:08:48.722Z,995.14
2023-01-10T04:09:48.727Z,995.13
2023-01-10T04:10:48.727Z,995.22
2023-01-10T04:11:48.696Z,995.15
2023-01-10T04:12:48.684Z,995.18
2023-01-10T04:13:48.675Z,995.22
2023-01-10T04:14:48.680Z,995.19
2023-01-10T04:15:48.652Z,995.27
2023-01-10T04:16:48.656Z,995.24
2023-01-10T04:17:48.648Z,995.26
2023-01-10T04:18:48.633Z,995.24
2023-01-10T04:19:48.605Z,995.24
2023-01-10T04:20:50.117Z,995.25
2023-01-10T04:21:48.600Z,995.25
2023-01-10T04:22:48.571Z,995.23
2023-01-10T04:23:48.593Z,995.24
2023-01-10T04:24:48.585Z,995.23
2023-01-10T04:25:48.535Z,995.22
2023-01-10T04:26:48.533Z,995.24
2023-01-10T04:27:48.530Z,995.25
2023-01-10T04:28:48.515Z,995.32
2023-01-10T04:29:48.507Z,995.29
2023-01-10T04:30:48.506Z,995.34
2023-01-10T04:31:48.575Z,995.38
2023-01-10T04:32:48.477Z,995.37
2023-01-10T04:33:48.460Z,995.31
2023-01-10T04:34:48.454Z,995.37
2023-01-10T04:35:48.432Z,995.35
2023-01-10T04:36:50.484Z,995.37
2023-01-10T04:37:48.422Z,995.35
2023-01-10T04:38:48.408Z,995.37
2023-01-10T04:39:48.395Z,995.37
2023-01-10T04:40:48.378Z,995.37
2023-01-10T04:41:48.368Z,995.32
2023-01-10T04:42:48.365Z,995.37
2023-01-10T04:43:48.357Z,995.36
2023-01-10T04:44:48.327Z,995.37
2023-01-10T04:45:48.355Z,995.38
2023-01-10T04:46:48.311Z,995.47
2023-01-10T04:47:48.306Z,995.40
2023-01-10T04:48:48.290Z,995.42
2023-01-10T04:49:48.287Z,995.48
2023-01-10T04:50:48.270Z,995.50
2023-01-10T04:51:48.266Z,995.45
2023-01-10T04:52:48.259Z,995.51
2023-01-10T04:53:48.250Z,995.53
2023-01-10T04:54:48.230Z,995.50
2023-01-10T04:55:48.218Z,995.49
2023-01-10T04:56:48.236Z,995.56
2023-01-10T04:57:48.187Z,995.52
2023-01-10T04:58:48.177Z,995.53
2023-01-10T04:59:48.183Z,995.53
2023-01-10T05:00:48.154Z,995.57
2023-01-10T05:01:48.333Z,995.59
2023-01-10T05:02:48.318Z,995.60
2023-01-10T05:03:48.129Z,995.52
2023-01-10T05:04:48.109Z,995.54
2023-01-10T05:05:48.111Z,995.54
2023-01-10T05:06:48.123Z,995.59
2023-01-10T05:07:48.075Z,995.58
2023-01-10T05:08:48.079Z,995.57
2023-01-10T05:09:48.066Z,995.67
2023-01-10T05:10:48.044Z,995.60
2023-01-10T05:11:48.035Z,995.62
2023-01-10T05:12:48.021Z,995.68
2023-01-10T05:13:48.338Z,995.68
2023-01-10T05:14:48.024Z,995.66
2023-01-10T05:15:47.990Z,995.68
2023-01-10T05:16:48.008Z,995.68
2023-01-10T05:17:48.026Z,995.73
2023-01-10T05:18:47.956Z,995.72
2023-01-10T05:19:47.947Z,995.75
2023-01-10T05:20:47.949Z,995.76
2023-01-10T05:21:47.921Z,995.78
2023-01-10T05:22:47.931Z,995.78
2023-01-10T05:23:47.935Z,995.80
2023-01-10T05:24:47.890Z,995.84
2023-01-10T05:25:47.878Z,995.85
2023-01-10T05:26:47.870Z,995.82
2023-01-10T05:27:47.863Z,995.86
2023-01-10T05:28:47.860Z,995.86
2023-01-10T05:29:47.829Z,995.88
2023-01-10T05:30:47.826Z,995.87
2023-01-10T05:31:47.829Z,995.86
2023-01-10T05:32:47.808Z,995.90
2023-01-10T05:33:47.798Z,995.93
2023-01-10T05:34:47.789Z,995.95
2023-01-10T05:35:47.768Z,995.97
2023-01-10T05:36:47.756Z,995.97
2023-01-10T05:37:47.745Z,995.98
2023-01-10T05:38:47.747Z,995.92
2023-01-10T05:39:47.719Z,995.98
2023-01-10T05:40:47.714Z,995.99
2023-01-10T05:41:47.703Z,996.00
2023-01-10T05:42:47.684Z,995.91
2023-01-10T05:43:47.689Z,995.92
2023-01-10T05:44:47.665Z,995.93
2023-01-10T05:45:47.732Z,995.91
2023-01-10T05:46:47.644Z,995.95
2023-01-10T05:47:47.644Z,995.96
2023-01-10T05:48:47.624Z,995.93
2023-01-10T05:49:47.612Z,995.98
2023-01-10T05:50:47.604Z,996.05
2023-01-10T05:51:47.604Z,996.06
2023-01-10T05:52:47.571Z,996.09
2023-01-10T05:53:48.091Z,996.13
2023-01-10T05:54:47.572Z,996.19
2023-01-10T05:55:47.551Z,996.18
2023-01-10T05:56:47.530Z,996.24
2023-01-10T05:57:47.523Z,996.20
2023-01-10T05:58:51.440Z,996.21
2023-01-10T05:59:47.514Z,996.23
2023-01-10T06:00:47.503Z,996.19
2023-01-10T06:01:47.494Z,996.18
2023-01-10T06:02:47.590Z,996.23
2023-01-10T06:03:47.461Z,996.20
2023-01-10T06:04:47.446Z,996.25
2023-01-10T06:05:48.930Z,996.24
2023-01-10T06:06:47.449Z,996.22
2023-01-10T06:07:47.420Z,996.27
2023-01-10T06:08:47.401Z,996.23
2023-01-10T06:09:47.388Z,996.22
2023-01-10T06:10:47.374Z,996.20
2023-01-10T06:11:47.367Z,996.18
2023-01-10T06:12:47.369Z,996.23
2023-01-10T06:13:47.347Z,996.25
2023-01-10T06:14:47.337Z,996.34
2023-01-10T06:15:47.385Z,996.31
2023-01-10T06:16:47.325Z,996.39
2023-01-10T06:17:47.318Z,996.42
2023-01-10T06:18:47.284Z,996.45
2023-01-10T06:19:47.276Z,996.43
2023-01-10T06:20:47.279Z,996.43
2023-01-10T06:21:47.256Z,996.47
2023-01-10T06:22:47.256Z,996.52
2023-01-10T06:23:47.245Z,996.51
2023-01-10T06:24:47.236Z,996.51
2023-01-10T06:25:47.233Z,996.54
2023-01-10T06:26:47.205Z,996.59
2023-01-10T06:27:47.236Z,996.60
2023-01-10T06:28:47.181Z,996.67
2023-01-10T06:29:47.155Z,996.71
2023-01-10T06:30:47.184Z,996.71
2023-01-10T06:31:47.137Z,996.73
2023-01-10T06:32:47.135Z,996.73
2023-01-10T06:33:47.121Z,996.69
2023-01-10T06:34:47.162Z,996.72
2023-01-10T06:35:47.127Z,996.69
2023-01-10T06:36:47.101Z,996.71
2023-01-10T06:37:47.075Z,996.74
2023-01-10T06:38:47.096Z,996.75
2023-01-10T06:39:47.098Z,996.79
2023-01-10T06:40:47.068Z,996.75
2023-01-10T06:41:47.037Z,996.78
2023-01-10T06:42:47.023Z,996.77
2023-01-10T06:43:47.044Z,996.81
2023-01-10T06:44:47.004Z,996.88
2023-01-10T06:45:47.071Z,996.97
2023-01-10T06:46:46.990Z,996.86
2023-01-10T06:47:46.970Z,996.87
2023-01-10T06:48:46.953Z,996.88
2023-01-10T06:49:46.952Z,996.89
2023-01-10T06:50:46.940Z,996.91
2023-01-10T06:51:46.937Z,996.94
2023-01-10T06:52:46.904Z,996.99
2023-01-10T06:53:46.898Z,996.99
2023-01-10T06:54:46.877Z,996.93
2023-01-10T06:55:46.880Z,996.99
2023-01-10T06:56:46.893Z,997.00
2023-01-10T06:57:46.942Z,997.01
2023-01-10T06:58:47.056Z,997.03
2023-01-10T06:59:46.831Z,996.99
2023-01-10T07:00:46.837Z,997.03
2023-01-10T07:01:47.033Z,997.02
2023-01-10T07:02:46.807Z,997.03
2023-01-10T07:03:46.874Z,997.02
2023-01-10T07:04:46.780Z,997.04
2023-01-10T07:05:46.771Z,997.15
2023-01-10T07:06:46.753Z,997.20
2023-01-10T07:07:46.739Z,997.18
2023-01-10T07:08:46.744Z,997.15
2023-01-10T07:09:46.725Z,997.18
2023-01-10T07:10:46.722Z,997.18
2023-01-10T07:11:46.716Z,997.19
2023-01-10T07:12:46.683Z,997.13
2023-01-10T07:13:46.666Z,997.18
2023-01-10T07:14:46.701Z,997.17
2023-01-10T07:15:46.679Z,997.21
2023-01-10T07:16:46.635Z,997.22
2023-01-10T07:17:46.635Z,997.25
2023-01-10T07:18:46.622Z,997.30
2023-01-10T07:19:46.606Z,997.29
2023-01-10T07:20:46.618Z,997.35
2023-01-10T07:21:46.577Z,997.32
2023-01-10T07:22:46.570Z,997.37
2023-01-10T07:23:46.559Z,997.32
2023-01-10T07:24:46.575Z,997.36
2023-01-10T07:25:46.538Z,997.40
2023-01-10T07:26:46.531Z,997.43
2023-01-10T07:27:46.523Z,997.34
2023-01-10T07:28:46.517Z,997.34
2023-01-10T07:29:46.490Z,997.38
2023-01-10T07:30:46.481Z,997.37
2023-01-10T07:31:46.473Z,997.38
2023-01-10T07:32:46.455Z,997.35
2023-01-10T07:33:46.456Z,997.37
2023-01-10T07:34:46.481Z,997.40
2023-01-10T07:35:46.465Z,997.38
2023-01-10T07:36:46.435Z,997.45
2023-01-10T07:37:46.486Z,997.49
2023-01-10T07:38:46.391Z,997.49
2023-01-10T07:39:46.403Z,997.52
2023-01-10T07:40:46.378Z,997.53
2023-01-10T07:41:46.383Z,997.56
2023-01-10T07:42:46.355Z,997.58
2023-01-10T07:43:46.337Z,997.57
2023-01-10T07:44:48.621Z,997.55
2023-01-10T07:45:46.336Z,997.56
2023-01-10T07:46:46.310Z,997.55
2023-01-10T07:47:46.315Z,997.62
2023-01-10T07:48:46.289Z,997.64
2023-01-10T07:49:46.296Z,997.61
2023-01-10T07:50:46.255Z,997.58
2023-01-10T07:51:46.258Z,997.65
2023-01-10T07:52:46.252Z,997.65
2023-01-10T07:53:46.239Z,997.66
2023-01-10T07:54:46.215Z,997.69
2023-01-10T07:55:46.215Z,997.73
2023-01-10T07:56:46.227Z,997.79
2023-01-10T07:57:46.175Z,997.80
2023-01-10T07:58:46.196Z,997.78
2023-01-10T07:59:46.176Z,997.73
2023-01-10T08:00:46.193Z,997.79
2023-01-10T08:01:46.143Z,997.82
2023-01-10T08:02:46.259Z,997.77
2023-01-10T08:03:46.246Z,997.81
2023-01-10T08:04:46.574Z,997.78
2023-01-10T08:05:46.201Z,997.78
2023-01-10T08:06:46.096Z,997.79
2023-01-10T08:07:46.071Z,997.83
2023-01-10T08:08:46.087Z,997.88
2023-01-10T08:09:46.068Z,997.85
2023-01-10T08:10:46.040Z,997.86
2023-01-10T08:11:46.054Z,997.91
2023-01-10T08:12:46.034Z,997.92
2023-01-10T08:13:45.998Z,997.99
2023-01-10T08:14:46.046Z,997.99
2023-01-10T08:15:46.021Z,997.97
2023-01-10T08:16:45.980Z,997.98
2023-01-10T08:17:45.970Z,997.99
2023-01-10T08:18:45.952Z,998.06
2023-01-10T08:19:45.947Z,998.03
2023-01-10T08:20:45.948Z,998.06
2023-01-10T08:21:45.932Z,998.04
2023-01-10T08:22:45.910Z,998.07
2023-01-10T08:23:45.896Z,998.10
2023-01-10T08:24:45.880Z,998.09
2023-01-10T08:25:45.884Z,998.15
2023-01-10T08:26:45.890Z,998.10
2023-01-10T08:27:45.871Z,998.02
2023-01-10T08:28:45.832Z,998.07
2023-01-10T08:29:45.837Z,998.07
2023-01-10T08:30:45.824Z,998.14
2023-01-10T08:31:45.825Z,998.19
2023-01-10T08:32:45.795Z,998.15
2023-01-10T08:33:45.800Z,998.18
2023-01-10T08:34:45.785Z,998.17
2023-01-10T08:35:45.778Z,998.22
2023-01-10T08:36:45.784Z,998.27
2023-01-10T08:37:45.739Z,998.27
2023-01-10T08:38:45.754Z,998.22
2023-01-10T08:39:45.712Z,998.20
2023-01-10T08:40:45.716Z,998.21
2023-01-10T08:41:45.696Z,998.27
2023-01-10T08:42:45.715Z,998.25
2023-01-10T08:43:45.679Z,998.31
2023-01-10T08:44:45.669Z,998.32
2023-01-10T08:45:45.643Z,998.30
2023-01-10T08:46:45.782Z,998.32
2023-01-10T08:47:45.641Z,998.29
2023-01-10T08:48:45.642Z,998.22
2023-01-10T08:49:45.609Z,998.23
2023-01-10T08:50:45.618Z,998.20
2023-01-10T08:51:45.594Z,998.19
2023-01-10T08:52:45.579Z,998.19
2023-01-10T08:53:45.569Z,998.26
2023-01-10T08:54:45.548Z,998.23
2023-01-10T08:55:45.561Z,998.27
2023-01-10T08:56:45.547Z,998.28
2023-01-10T08:57:45.516Z,998.30
2023-01-10T08:58:45.506Z,998.35
2023-01-10T08:59:45.505Z,998.29
2023-01-10T09:00:45.499Z,998.32
2023-01-10T09:01:45.566Z,998.26
2023-01-10T09:02:45.527Z,998.30
2023-01-10T09:03:45.471Z,998.34
2023-01-10T09:04:45.439Z,998.32
2023-01-10T09:05:45.472Z,998.41
2023-01-10T09:06:45.422Z,998.39
2023-01-10T09:07:45.414Z,998.34
2023-01-10T09:08:45.409Z,998.27
2023-01-10T09:09:45.432Z,998.32
2023-01-10T09:10:45.397Z,998.30
2023-01-10T09:11:45.391Z,998.35
2023-01-10T09:12:45.347Z,998.35
2023-01-10T09:13:45.340Z,998.34
2023-01-10T09:14:45.339Z,998.38
2023-01-10T09:15:45.378Z,998.36
2023-01-10T09:16:45.321Z,998.39
2023-01-10T09:17:45.310Z,998.35
2023-01-10T09:18:45.309Z,998.38
2023-01-10T09:19:45.283Z,998.34
2023-01-10T09:20:45.292Z,998.38
2023-01-10T09:21:45.252Z,998.38
2023-01-10T09:22:45.279Z,998.40
2023-01-10T09:23:45.270Z,998.44
2023-01-10T09:24:45.229Z,998.40
2023-01-10T09:25:45.210Z,998.35
2023-01-10T09:26:45.226Z,998.44
2023-01-10T09:27:45.203Z,998.42
2023-01-10T09:28:46.915Z,998.42
2023-01-10T09:29:45.192Z,998.41
2023-01-10T09:30:45.150Z,998.42
2023-01-10T09:31:45.172Z,998.47
2023-01-10T09:32:45.141Z,998.43
2023-01-10T09:33:47.479Z,998.40
2023-01-10T09:34:45.104Z,998.39
2023-01-10T09:35:45.135Z,998.39
2023-01-10T09:36:45.090Z,998.33
2023-01-10T09:37:45.107Z,998.37
2023-01-10T09:38:45.119Z,998.39
2023-01-10T09:39:45.065Z,998.43
2023-01-10T09:40:45.038Z,998.43
2023-01-10T09:41:45.024Z,998.45
2023-01-10T09:42:45.073Z,998.41
2023-01-10T09:43:45.017Z,998.42
2023-01-10T09:44:45.008Z,998.45
2023-01-10T09:45:45.035Z,998.49
2023-01-10T09:46:45.076Z,998.42
2023-01-10T09:47:44.975Z,998.41
2023-01-10T09:48:44.971Z,998.37
2023-01-10T09:49:44.954Z,998.39
2023-01-10T09:50:44.930Z,998.45
2023-01-10T09:51:44.975Z,998.46
2023-01-10T09:52:44.930Z,998.36
2023-01-10T09:53:44.897Z,998.41
2023-01-10T09:54:44.894Z,998.44
2023-01-10T09:55:44.871Z,998.47
2023-01-10T09:56:44.873Z,998.48
2023-01-10T09:57:44.873Z,998.48
2023-01-10T09:58:44.858Z,998.52
2023-01-10T09:59:44.853Z,998.48
2023-01-10T10:00:44.845Z,998.54
2023-01-10T10:01:44.832Z,998.51
2023-01-10T10:02:44.807Z,998.50
2023-01-10T10:03:45.030Z,998.54
2023-01-10T10:04:44.776Z,998.49
2023-01-10T10:05:44.759Z,998.51
2023-01-10T10:06:44.763Z,998.55
2023-01-10T10:07:44.769Z,998.52
2023-01-10T10:08:44.763Z,998.52
2023-01-10T10:09:44.767Z,998.48
2023-01-10T10:10:44.720Z,998.51
2023-01-10T10:11:44.714Z,998.53
2023-01-10T10:12:44.703Z,998.45
2023-01-10T10:13:44.693Z,998.52
2023-01-10T10:14:44.698Z,998.51
2023-01-10T10:15:44.649Z,998.50
2023-01-10T10:16:44.654Z,998.43
2023-01-10T10:17:44.677Z,998.40
2023-01-10T10:18:44.675Z,998.42
2023-01-10T10:19:44.620Z,998.38
2023-01-10T10:20:44.637Z,998.35
2023-01-10T10:21:44.604Z,998.38
2023-01-10T10:22:44.579Z,998.33
2023-01-10T10:23:44.584Z,998.36
2023-01-10T10:24:44.555Z,998.39
2023-01-10T10:25:44.567Z,998.39
2023-01-10T10:26:44.562Z,998.38
2023-01-10T10:27:44.540Z,998.38
2023-01-10T10:28:53.881Z,998.43
2023-01-10T10:29:44.500Z,998.42
2023-01-10T10:30:44.527Z,998.34
2023-01-10T10:31:44.638Z,998.35
2023-01-10T10:32:44.496Z,998.41
2023-01-10T10:33:44.461Z,998.38
2023-01-10T10:34:44.446Z,998.45
2023-01-10T10:35:44.461Z,998.35
2023-01-10T10:36:44.424Z,998.30
2023-01-10T10:37:44.564Z,998.36
2023-01-10T10:38:44.415Z,998.36
2023-01-10T10:39:44.423Z,998.30
2023-01-10T10:40:44.398Z,998.34
2023-01-10T10:41:44.384Z,998.31
2023-01-10T10:42:44.380Z,998.33
2023-01-10T10:43:44.367Z,998.36
2023-01-10T10:44:44.332Z,998.32
2023-01-10T10:45:44.424Z,998.35
2023-01-10T10:46:44.311Z,998.35
2023-01-10T10:47:44.310Z,998.35
2023-01-10T10:48:44.314Z,998.37
2023-01-10T10:49:44.315Z,998.42
2023-01-10T10:50:44.303Z,998.42
2023-01-10T10:51:44.370Z,998.37
2023-01-10T10:52:44.271Z,998.35
2023-01-10T10:53:44.245Z,998.30
2023-01-10T10:54:46.923Z,998.30
2023-01-10T10:55:44.219Z,998.27
2023-01-10T10:56:44.202Z,998.31
2023-01-10T10:57:55.597Z,998.23
2023-01-10T10:58:44.203Z,998.19
2023-01-10T10:59:44.169Z,998.18
2023-01-10T11:00:44.237Z,998.19
2023-01-10T11:01:44.215Z,998.16
2023-01-10T11:02:44.135Z,998.13
2023-01-10T11:03:44.140Z,998.06
2023-01-10T11:04:44.216Z,998.07
2023-01-10T11:05:44.112Z,998.04
2023-01-10T11:06:44.111Z,998.00
2023-01-10T11:07:44.079Z,997.96
2023-01-10T11:08:44.080Z,997.94
2023-01-10T11:09:44.159Z,997.96
2023-01-10T11:10:44.050Z,997.97
2023-01-10T11:11:44.064Z,997.98
2023-01-10T11:12:44.024Z,997.92
2023-01-10T11:13:44.022Z,997.94
2023-01-10T11:14:44.021Z,997.95
2023-01-10T11:15:44.029Z,997.92
2023-01-10T11:16:44.014Z,997.90
2023-01-10T11:17:43.979Z,997.90
2023-01-10T11:18:43.960Z,997.89
2023-01-10T11:19:43.969Z,997.87
2023-01-10T11:20:43.936Z,997.82
2023-01-10T11:21:43.935Z,997.83
2023-01-10T11:22:43.939Z,997.87
2023-01-10T11:23:43.931Z,997.81
2023-01-10T11:24:43.923Z,997.89
2023-01-10T11:25:43.887Z,997.86
2023-01-10T11:26:43.885Z,997.87
2023-01-10T11:27:43.855Z,997.84
2023-01-10T11:28:43.877Z,997.76
2023-01-10T11:29:43.881Z,997.76
2023-01-10T11:30:43.824Z,997.75
2023-01-10T11:31:43.913Z,997.75
2023-01-10T11:32:43.836Z,997.72
2023-01-10T11:33:43.804Z,997.72
2023-01-10T11:34:43.783Z,997.75
2023-01-10T11:35:43.771Z,997.76
2023-01-10T11:36:43.767Z,997.73
2023-01-10T11:37:43.771Z,997.77
2023-01-10T11:38:43.757Z,997.77
2023-01-10T11:39:43.757Z,997.77
2023-01-10T11:40:43.737Z,997.77
2023-01-10T11:41:43.726Z,997.81
2023-01-10T11:42:43.716Z,997.78
2023-01-10T11:43:43.690Z,997.74
2023-01-10T11:44:43.690Z,997.79
2023-01-10T11:45:43.828Z,997.81
2023-01-10T11:46:43.662Z,997.81
2023-01-10T11:47:45.629Z,997.81
2023-01-10T11:49:04.195Z,997.77
2023-01-10T11:49:43.627Z,997.79
2023-01-10T11:50:43.605Z,997.79
2023-01-10T11:51:43.632Z,997.77
2023-01-10T11:52:43.607Z,997.76
2023-01-10T11:53:43.584Z,997.73
2023-01-10T11:54:43.587Z,997.71
2023-01-10T11:55:43.558Z,997.67
2023-01-10T11:56:43.704Z,997.71
2023-01-10T11:57:43.545Z,997.69
2023-01-10T11:58:43.668Z,997.61
2023-01-10T11:59:43.506Z,997.62
2023-01-10T12:00:43.511Z,997.58
2023-01-10T12:01:43.496Z,997.59
2023-01-10T12:02:43.521Z,997.58
2023-01-10T12:03:43.465Z,997.56
2023-01-10T12:04:43.606Z,997.56
2023-01-10T12:05:43.449Z,997.54
2023-01-10T12:06:43.437Z,997.55
2023-01-10T12:07:43.423Z,997.55
2023-01-10T12:08:43.415Z,997.53
2023-01-10T12:09:43.429Z,997.49
2023-01-10T12:10:43.409Z,997.46
2023-01-10T12:11:43.383Z,997.48
2023-01-10T12:12:43.364Z,997.47
2023-01-10T12:13:43.388Z,997.46
2023-01-10T12:14:43.360Z,997.52
2023-01-10T12:15:43.362Z,997.45
2023-01-10T12:16:43.382Z,997.46
2023-01-10T12:17:43.340Z,997.48
2023-01-10T12:18:43.300Z,997.51
2023-01-10T12:19:43.297Z,997.43
2023-01-10T12:20:43.293Z,997.45
2023-01-10T12:21:43.272Z,997.40
2023-01-10T12:22:43.275Z,997.40
2023-01-10T12:23:43.264Z,997.39
2023-01-10T12:24:43.233Z,997.37
2023-01-10T12:25:43.259Z,997.33
2023-01-10T12:26:43.217Z,997.33
2023-01-10T12:27:43.202Z,997.36
2023-01-10T12:28:43.253Z,997.39